createdAt,value
2023-04-22T00:04:30.017Z,12.70
2023-04-22T00:09:32.227Z,12.02
2023-04-22T00:14:35.223Z,11.60
2023-04-22T00:19:37.540Z,12.38
2023-04-22T00:24:39.880Z,11.43
2023-04-22T00:29:42.047Z,10.35
2023-04-22T00:34:44.146Z,12.35
2023-04-22T00:39:46.396Z,11.55
2023-04-22T00:44:48.753Z,11.98
2023-04-22T00:49:51.306Z,11.77
2023-04-22T00:54:53.448Z,10.88
2023-04-22T00:59:55.795Z,12.50
2023-04-22T01:04:58.466Z,11.77
2023-04-22T01:10:00.711Z,11.73
2023-04-22T01:15:05.079Z,10.65
2023-04-22T01:20:10.454Z,10.88
2023-04-22T01:25:13.792Z,10.07
2023-04-22T01:30:16.310Z,11.27
2023-04-22T01:35:18.425Z,12.88
2023-04-22T01:40:22.775Z,12.38
2023-04-22T01:45:25.505Z,11.90
2023-04-22T01:50:27.699Z,11.38
2023-04-22T01:55:30.970Z,11.60
2023-04-22T02:00:33.195Z,11.05
2023-04-22T02:05:35.448Z,10.68
2023-04-22T02:10:37.641Z,10.57
2023-04-22T02:15:41.346Z,9.68
2023-04-22T02:20:43.643Z,11.20
2023-04-22T02:25:50.597Z,11.15
2023-04-22T02:30:54.000Z,10.18
2023-04-22T02:35:58.139Z,10.02
2023-04-22T02:41:00.300Z,10.93
2023-04-22T02:46:02.608Z,9.48
2023-04-22T02:51:05.062Z,8.35
2023-04-22T02:56:08.605Z,8.43
2023-04-22T03:01:11.839Z,8.80
2023-04-22T03:06:14.541Z,9.75
2023-04-22T03:11:16.596Z,10.23
2023-04-22T03:16:18.766Z,10.23
2023-04-22T03:21:21.456Z,10.65
2023-04-22T03:26:23.935Z,10.15
2023-04-22T03:31:26.327Z,11.65
2023-04-22T03:36:28.486Z,9.20
2023-04-22T03:41:31.920Z,10.13
2023-04-22T03:46:34.654Z,8.55
2023-04-22T03:51:49.521Z,10.87
2023-04-22T03:56:55.892Z,9.85
2023-04-22T04:01:59.380Z,9.05
2023-04-22T04:07:02.108Z,9.85
2023-04-22T04:12:05.318Z,9.48
2023-04-22T04:17:15.318Z,9.02
2023-04-22T04:22:18.430Z,8.25
2023-04-22T04:27:27.999Z,7.20
2023-04-22T04:32:34.349Z,7.50
2023-04-22T04:37:40.564Z,7.63
2023-04-22T04:42:45.601Z,7.18
2023-04-22T04:47:54.790Z,5.80
2023-04-22T04:53:02.499Z,6.53
2023-04-22T04:58:13.803Z,6.60
2023-04-22T05:03:16.394Z,7.57
2023-04-22T05:08:19.789Z,6.55
2023-04-22T05:13:24.118Z,6.20
2023-04-22T05:18:26.426Z,6.15
2023-04-22T05:23:31.133Z,6.13
2023-04-22T05:28:35.283Z,6.50
2023-04-22T05:33:37.440Z,6.10
2023-04-22T05:38:41.025Z,6.53
2023-04-22T05:43:43.178Z,6.53
2023-04-22T05:48:51.315Z,5.95
2023-04-22T05:54:16.589Z,5.65
2023-04-22T05:59:19.667Z,5.35
2023-04-22T06:04:24.672Z,6.72
2023-04-22T06:09:26.997Z,6.70
2023-04-22T06:14:29.083Z,5.72
2023-04-22T06:19:31.164Z,6.70
2023-04-22T06:24:33.566Z,5.75
2023-04-22T06:29:35.853Z,5.63
2023-04-22T06:34:38.821Z,6.45
2023-04-22T06:39:41.870Z,7.00
2023-04-22T06:45:13.500Z,6.78
2023-04-22T06:50:25.177Z,7.10
2023-04-22T06:55:30.860Z,7.47
2023-04-22T07:00:32.929Z,6.95
2023-04-22T07:05:36.270Z,7.20
2023-04-22T07:10:39.486Z,7.32
2023-04-22T07:16:03.216Z,7.15
2023-04-22T07:21:05.521Z,7.30
2023-04-22T07:26:07.714Z,7.63
2023-04-22T07:31:09.811Z,6.22
2023-04-22T07:36:11.871Z,6.28
2023-04-22T07:41:14.215Z,6.10
2023-04-22T07:46:16.485Z,7.32
2023-04-22T07:51:18.740Z,6.55
2023-04-22T07:56:20.863Z,6.13
2023-04-22T08:01:23.069Z,5.90
2023-04-22T08:06:25.479Z,6.22
2023-04-22T08:11:27.598Z,6.28
2023-04-22T08:16:29.863Z,6.20
2023-04-22T08:21:33.074Z,6.30
2023-04-22T08:26:37.525Z,6.00
2023-04-22T08:31:39.676Z,6.03
2023-04-22T08:36:42.522Z,6.32
2023-04-22T08:41:45.944Z,5.28
2023-04-22T08:46:49.228Z,5.53
2023-04-22T08:51:53.017Z,5.25
2023-04-22T08:56:55.795Z,4.60
2023-04-22T09:01:58.823Z,4.80
2023-04-22T09:07:03.112Z,4.47
2023-04-22T09:12:06.439Z,4.22
2023-04-22T09:17:08.783Z,4.57
2023-04-22T09:22:14.768Z,4.20
2023-04-22T09:27:23.630Z,5.00
2023-04-22T09:32:26.194Z,4.28
2023-04-22T09:37:36.115Z,3.85
2023-04-22T09:42:51.212Z,4.38
2023-04-22T09:47:55.764Z,3.90
2023-04-22T09:53:04.238Z,4.07
2023-04-22T09:58:09.135Z,3.60
2023-04-22T10:03:11.682Z,3.23
2023-04-22T10:08:16.026Z,3.10
2023-04-22T10:13:18.566Z,3.35
2023-04-22T10:18:27.194Z,2.90
2023-04-22T10:23:32.864Z,2.85
2023-04-22T10:28:35.043Z,1.85
2023-04-22T10:33:39.254Z,1.85
2023-04-22T10:38:42.641Z,1.92
2023-04-22T10:43:48.910Z,2.00
2023-04-22T10:48:51.177Z,1.73
2023-04-22T10:53:53.216Z,1.67
2023-04-22T10:58:56.800Z,2.08
2023-04-22T11:04:19.955Z,1.40
2023-04-22T11:09:22.319Z,1.38
2023-04-22T11:14:24.888Z,1.50
2023-04-22T11:19:27.980Z,1.35
2023-04-22T11:24:30.075Z,1.40
2023-04-22T11:29:32.111Z,1.20
2023-04-22T11:34:34.473Z,2.08
2023-04-22T11:39:43.580Z,1.20
2023-04-22T11:44:52.517Z,1.30
2023-04-22T11:50:07.027Z,1.10
2023-04-22T11:55:31.650Z,1.02
2023-04-22T12:00:37.324Z,0.80
2023-04-22T12:06:00.384Z,0.68
2023-04-22T12:11:07.271Z,0.60
2023-04-22T12:16:20.092Z,0.50
2023-04-22T12:21:24.759Z,0.52
2023-04-22T12:26:28.243Z,0.90
2023-04-22T12:31:30.413Z,0.57
2023-04-22T12:36:32.568Z,0.95
2023-04-22T12:41:34.707Z,0.70
2023-04-22T12:46:36.943Z,0.98
2023-04-22T12:51:39.116Z,1.00
2023-04-22T12:56:41.223Z,0.80
2023-04-22T13:01:43.334Z,1.08
2023-04-22T13:06:45.473Z,1.30
2023-04-22T13:11:49.313Z,1.38
2023-04-22T13:16:52.393Z,1.65
2023-04-22T13:21:54.449Z,1.33
2023-04-22T13:26:57.341Z,1.70
2023-04-22T13:31:59.534Z,1.52
2023-04-22T13:37:01.704Z,1.92
2023-04-22T13:42:04.051Z,1.50
2023-04-22T13:47:06.165Z,1.50
2023-04-22T13:52:08.359Z,1.60
2023-04-22T13:57:10.466Z,1.38
2023-04-22T14:02:12.600Z,1.60
2023-04-22T14:07:14.715Z,1.60
2023-04-22T14:12:17.152Z,1.45
2023-04-22T14:17:20.728Z,1.80
2023-04-22T14:22:22.766Z,1.52
2023-04-22T14:27:26.166Z,1.35
2023-04-22T14:32:29.344Z,1.52
2023-04-22T14:37:32.165Z,1.70
2023-04-22T14:42:34.552Z,1.48
2023-04-22T14:47:36.691Z,1.30
2023-04-22T14:52:38.826Z,1.80
2023-04-22T14:57:41.082Z,1.40
2023-04-22T15:02:44.005Z,1.50
2023-04-22T15:07:46.168Z,1.63
2023-04-22T15:12:48.328Z,1.55
2023-04-22T15:17:50.558Z,1.95
2023-04-22T15:22:52.740Z,1.80
2023-04-22T15:27:56.895Z,1.42
2023-04-22T15:32:59.012Z,1.20
2023-04-22T15:38:02.950Z,1.23
2023-04-22T15:43:05.033Z,2.17
2023-04-22T15:48:07.254Z,2.50
2023-04-22T15:53:09.493Z,3.22
2023-04-22T15:58:11.609Z,1.98
2023-04-22T16:03:14.320Z,2.13
2023-04-22T16:08:16.693Z,2.83
2023-04-22T16:13:19.281Z,2.55
2023-04-22T16:18:21.489Z,2.38
2023-04-22T16:23:23.596Z,2.30
2023-04-22T16:28:25.652Z,2.83
2023-04-22T16:33:28.346Z,3.47
2023-04-22T16:38:30.636Z,2.08
2023-04-22T16:43:32.762Z,2.90
2023-04-22T16:48:34.903Z,2.80
2023-04-22T16:53:37.187Z,2.40
2023-04-22T16:58:39.350Z,2.65
2023-04-22T17:03:41.774Z,2.38
2023-04-22T17:08:44.000Z,2.83
2023-04-22T17:13:46.095Z,2.10
2023-04-22T17:18:48.271Z,1.83
2023-04-22T17:23:50.784Z,1.83
2023-04-22T17:28:52.838Z,1.50
2023-04-22T17:33:54.940Z,2.03
2023-04-22T17:38:57.011Z,2.80
2023-04-22T17:43:59.368Z,1.55
2023-04-22T17:49:01.690Z,1.75
2023-04-22T17:54:05.291Z,1.77
2023-04-22T17:59:07.529Z,1.73
2023-04-22T18:04:09.725Z,1.85
2023-04-22T18:09:11.857Z,1.88
2023-04-22T18:14:14.085Z,1.80
2023-04-22T18:19:16.304Z,1.60
2023-04-22T18:24:18.388Z,1.42
2023-04-22T18:29:20.839Z,1.52
2023-04-22T18:34:23.016Z,1.70
2023-04-22T18:39:25.135Z,2.00
2023-04-22T18:44:27.240Z,1.80
2023-04-22T18:49:33.647Z,1.70
2023-04-22T18:54:36.203Z,1.70
2023-04-22T18:59:38.367Z,1.75
2023-04-22T19:04:41.064Z,1.20
2023-04-22T19:09:43.357Z,1.23
2023-04-22T19:14:47.137Z,0.98
2023-04-22T19:19:49.217Z,0.98
2023-04-22T19:24:52.046Z,1.48
2023-04-22T19:29:54.103Z,1.10
2023-04-22T19:34:56.200Z,0.80
2023-04-22T19:39:58.367Z,1.10
2023-04-22T19:45:00.533Z,1.08
2023-04-22T19:50:07.947Z,1.10
2023-04-22T19:55:11.859Z,1.08
2023-04-22T20:00:14.347Z,1.02
2023-04-22T20:05:18.542Z,1.20
2023-04-22T20:10:22.791Z,1.20
2023-04-22T20:15:25.159Z,1.35
2023-04-22T20:20:27.653Z,1.10
2023-04-22T20:25:30.944Z,1.15
2023-04-22T20:30:33.532Z,1.27
2023-04-22T20:35:38.283Z,1.50
2023-04-22T20:40:41.265Z,1.92
2023-04-22T20:45:43.764Z,1.60
2023-04-22T20:50:46.218Z,1.70
2023-04-22T20:55:48.385Z,1.88
2023-04-22T21:00:50.862Z,1.70
2023-04-22T21:05:53.431Z,1.80
2023-04-22T21:10:57.072Z,2.00
2023-04-22T21:16:02.611Z,1.40
2023-04-22T21:21:06.913Z,2.10
2023-04-22T21:26:10.311Z,2.22
2023-04-22T21:31:12.814Z,2.45
2023-04-22T21:36:15.748Z,2.45
2023-04-22T21:41:17.945Z,2.47
2023-04-22T21:46:22.105Z,2.53
2023-04-22T21:51:24.602Z,2.67
2023-04-22T21:56:26.960Z,2.53
2023-04-22T22:01:29.102Z,3.20
2023-04-22T22:06:31.576Z,3.10
2023-04-22T22:11:33.896Z,2.72
2023-04-22T22:16:37.522Z,2.97
2023-04-22T22:21:39.822Z,2.88
2023-04-22T22:26:42.902Z,3.00
2023-04-22T22:31:45.703Z,3.17
2023-04-22T22:36:48.005Z,3.35
2023-04-22T22:41:50.318Z,2.97
2023-04-22T22:46:52.437Z,3.13
2023-04-22T22:51:54.705Z,2.47
2023-04-22T22:56:59.600Z,2.72
2023-04-22T23:02:01.938Z,2.58
2023-04-22T23:07:04.050Z,2.67
2023-04-22T23:12:06.273Z,2.33
2023-04-22T23:17:08.531Z,2.05
2023-04-22T23:22:11.760Z,2.05
2023-04-22T23:27:14.121Z,2.03
2023-04-22T23:32:19.472Z,2.95
2023-04-22T23:37:23.387Z,2.38
2023-04-22T23:42:25.485Z,2.38
2023-04-22T23:47:27.795Z,2.35
2023-04-22T23:52:29.915Z,1.90
2023-04-22T23:57:32.456Z,2.72
